Mirai — JNSR — position and weather

sailwx.info

Track history (hours):
 
Tides and Currents Weather Stations Pressure Air Temp Water Temp Dewpoint Dewpoint Depression Visibility Wind Speed Wind Dir Waves Ship Positions

Oceanographic research ship Mirai (Japan)

Detailed information on ship capabilities available from University of Delaware's Ocean Information Center and ARCUS's ALIAS (Arctic Logistics Information and Support) project.

Last reported at 2020-Jul-07 14:56 UTC. Time now 2020-Jul-07 15:13 UTC.
Position N 34°48' E 138°41'.

Length 128.6 m; beam 19 m; draft 6.9 m.

Type: Other ship. MMSI: 431939000.

Date/timePositionNaut miles runAvg speedWind from/ knotsBaromVisibWave heightAir tempDewpointWater temp
2020-Jul-07 14:56N 34°48' E 138°41'1 0.9
2020-Jul-07 14:00N 34°47' E 138°42'1 0.7
2020-Jul-07 12:58N 34°47' E 138°42'1 0.6
2020-Jul-07 11:29N 34°46' E 138°41'1 0.8
2020-Jul-07 10:49N 34°45' E 138°41'12 1.0
2020-Jul-06 22:28N 34°33' E 138°37'16 4.7
2020-Jul-06 19:00N 34°49' E 138°41'0 1.0
2020-Jul-06 18:30N 34°49' E 138°41'1 1.2
2020-Jul-06 17:30N 34°48' E 138°42'0 0.8
2020-Jul-06 16:54N 34°47' E 138°42'0 0.1
2020-Jul-06 12:00N 34°48' E 138°42'0 0.4
2020-Jul-06 11:00N 34°47' E 138°41'1 0.9
2020-Jul-06 09:49N 34°47' E 138°41'5 4.0
2020-Jul-06 08:28N 34°41' E 138°40'611.8
2020-Jul-06 07:58N 34°36' E 138°40'11 1.7
2020-Jul-06 01:18N 34°25' E 138°37'26 7.8
2020-Jul-05 22:00N 34°50' E 138°41'2 0.9
2020-Jul-05 20:00N 34°52' E 138°42'3 0.7
2020-Jul-05 15:42N 34°49' E 138°42'0 0.5
2020-Jul-05 15:30N 34°49' E 138°42'1 0.2
2020-Jul-05 12:03N 34°48' E 138°42'0 0.2
2020-Jul-05 10:25N 34°48' E 138°42'2 0.3
2020-Jul-05 03:51N 34°46' E 138°41'1 0.9
2020-Jul-05 02:57N 34°47' E 138°41'1 1.5
2020-Jul-05 02:00N 34°48' E 138°41'2 0.7
2020-Jul-04 22:28N 34°51' E 138°41'2 0.7
2020-Jul-04 19:59N 34°49' E 138°42'0 0.7
2020-Jul-04 19:30N 34°49' E 138°42'1 1.0
2020-Jul-04 18:30N 34°50' E 138°41'2 0.3
2020-Jul-04 12:30N 34°51' E 138°42'1 1.0
2020-Jul-04 11:15N 34°50' E 138°41'1 0.1
2020-Jul-03 21:31N 34°49' E 138°41'0 0.5
2020-Jul-03 21:00N 34°49' E 138°41'2 0.7
2020-Jul-03 17:54N 34°47' E 138°42'0 0.3
2020-Jul-03 16:30N 34°47' E 138°42'0 0.3
2020-Jul-03 15:54N 34°47' E 138°41'0 0.6
2020-Jul-03 15:25N 34°47' E 138°41'0 0.4
2020-Jul-03 14:26N 34°47' E 138°42'0 0.7
2020-Jul-03 13:53N 34°47' E 138°41'0 0.8
2020-Jul-03 13:17N 34°47' E 138°42'0 0.1
2020-Jul-03 10:30N 34°47' E 138°42'0 0.2
2020-Jul-03 09:19N 34°48' E 138°42'0 0.4
2020-Jul-03 08:58N 34°48' E 138°42'0 0.3
2020-Jul-03 08:16N 34°48' E 138°42'0 0.1
2020-Jul-03 04:00N 34°47' E 138°42'0 0.3
2020-Jul-03 02:59N 34°47' E 138°41'4 7.7
2020-Jul-03 02:28N 34°47' E 138°37'2 0.3
2020-Jul-02 20:29N 34°47' E 138°35'0 0.1
2020-Jul-02 19:31N 34°46' E 138°35'1 0.6
2020-Jul-02 18:30N 34°47' E 138°34'13 5.1
2020-Jul-02 15:59N 34°36' E 138°42'42 7.3
2020-Jul-02 10:19N 34°57' E 139°26'1010.9
2020-Jul-02 09:25N 35°02' E 139°36'710.9
2020-Jul-02 08:45N 35°06' E 139°44'13 1.4
2020-Jul-01 23:31N 35°19' E 139°40'1 0.2
2020-Jul-01 18:31N 35°20' E 139°41'0 0.0
2020-Jul-01 16:01N 35°20' E 139°41'0 0.0
2020-Jul-01 13:31N 35°20' E 139°41'0 0.0
2020-Jul-01 05:30N 35°20' E 139°41'0 0.0
2020-Jul-01 04:01N 35°20' E 139°41'0 0.0
2020-Jul-01 02:30N 35°20' E 139°41'2 0.7
2020-Jul-01 00:00N 35°19' E 139°39'58 3.5
2020-Jun-30 07:30N 35°02' E 138°31'1 0.9
2020-Jun-30 06:21N 35°02' E 138°31'0 0.0
2020-Jun-30 02:15N 35°02' E 138°31'0 0.0
2020-Jun-30 00:27N 35°02' E 138°31'0 0.0
2020-Jun-29 22:51N 35°02' E 138°31'0 0.0
2020-Jun-29 22:15N 35°02' E 138°31'0 0.0
2020-Jun-29 21:24N 35°02' E 138°31'0 0.0
2020-Jun-29 16:09N 35°02' E 138°31'0 0.0
2020-Jun-29 15:36N 35°02' E 138°31'0 0.0
2020-Jun-29 13:51N 35°02' E 138°31'0 0.0
2020-Jun-29 13:28N 35°02' E 138°31'0 0.0
2020-Jun-29 06:31N 35°02' E 138°31'0 0.0
2020-Jun-29 05:28N 35°02' E 138°31'0 0.0
2020-Jun-29 04:28N 35°02' E 138°31'0 0.0
2020-Jun-29 00:28N 35°02' E 138°31'0 0.0
2020-Jun-28 23:28N 35°02' E 138°31'0 0.0
2020-Jun-28 22:28N 35°02' E 138°31'0 0.0
2020-Jun-28 21:58N 35°02' E 138°31'0 0.0
2020-Jun-28 21:28N 35°02' E 138°31'0 0.0
2020-Jun-28 18:30N 35°02' E 138°31'0 0.0
2020-Jun-28 14:30N 35°02' E 138°31'0 0.0
2020-Jun-28 13:27N 35°02' E 138°31'0 0.0
2020-Jun-28 12:00N 35°02' E 138°31'0 0.0
2020-Jun-28 07:27N 35°02' E 138°31'0 0.0
2020-Jun-28 05:00N 35°02' E 138°31'0 0.0
2020-Jun-28 02:27N 35°02' E 138°31'0 0.0
2020-Jun-28 01:21N 35°02' E 138°31'0 0.0
2020-Jun-27 22:57N 35°02' E 138°31'0 0.0
2020-Jun-27 22:27N 35°02' E 138°31'0 0.0
2020-Jun-27 19:27N 35°02' E 138°31'0 0.0
2020-Jun-27 18:45N 35°02' E 138°31'0 0.0
2020-Jun-27 16:21N 35°02' E 138°31'  
Track history (hours):
 
Tides and Currents Weather Stations Pressure Air Temp Water Temp Dewpoint Dewpoint Depression Visibility Wind Speed Wind Dir Waves Ship Positions

Oceanographic research ship Mirai (Japan)

Detailed information on ship capabilities available from University of Delaware's Ocean Information Center and ARCUS's ALIAS (Arctic Logistics Information and Support) project.

Last reported at 2020-Jul-07 14:56 UTC. Time now 2020-Jul-07 15:13 UTC.
Position N 34°48' E 138°41'.

Length 128.6 m; beam 19 m; draft 6.9 m.

Type: Other ship. MMSI: 431939000.

Date/timePositionNaut miles runAvg speedWind from/ knotsBaromVisibWave heightAir tempDewpointWater temp
2020-Jul-07 14:56N 34°48' E 138°41'1 0.9
2020-Jul-07 14:00N 34°47' E 138°42'1 0.7
2020-Jul-07 12:58N 34°47' E 138°42'1 0.6
2020-Jul-07 11:29N 34°46' E 138°41'1 0.8
2020-Jul-07 10:49N 34°45' E 138°41'12 1.0
2020-Jul-06 22:28N 34°33' E 138°37'16 4.7
2020-Jul-06 19:00N 34°49' E 138°41'0 1.0
2020-Jul-06 18:30N 34°49' E 138°41'1 1.2
2020-Jul-06 17:30N 34°48' E 138°42'0 0.8
2020-Jul-06 16:54N 34°47' E 138°42'0 0.1
2020-Jul-06 12:00N 34°48' E 138°42'0 0.4
2020-Jul-06 11:00N 34°47' E 138°41'1 0.9
2020-Jul-06 09:49N 34°47' E 138°41'5 4.0
2020-Jul-06 08:28N 34°41' E 138°40'611.8
2020-Jul-06 07:58N 34°36' E 138°40'11 1.7
2020-Jul-06 01:18N 34°25' E 138°37'26 7.8
2020-Jul-05 22:00N 34°50' E 138°41'2 0.9
2020-Jul-05 20:00N 34°52' E 138°42'3 0.7
2020-Jul-05 15:42N 34°49' E 138°42'0 0.5
2020-Jul-05 15:30N 34°49' E 138°42'1 0.2
2020-Jul-05 12:03N 34°48' E 138°42'0 0.2
2020-Jul-05 10:25N 34°48' E 138°42'2 0.3
2020-Jul-05 03:51N 34°46' E 138°41'1 0.9
2020-Jul-05 02:57N 34°47' E 138°41'1 1.5
2020-Jul-05 02:00N 34°48' E 138°41'2 0.7
2020-Jul-04 22:28N 34°51' E 138°41'2 0.7
2020-Jul-04 19:59N 34°49' E 138°42'0 0.7
2020-Jul-04 19:30N 34°49' E 138°42'1 1.0
2020-Jul-04 18:30N 34°50' E 138°41'2 0.3
2020-Jul-04 12:30N 34°51' E 138°42'1 1.0
2020-Jul-04 11:15N 34°50' E 138°41'1 0.1
2020-Jul-03 21:31N 34°49' E 138°41'0 0.5
2020-Jul-03 21:00N 34°49' E 138°41'2 0.7
2020-Jul-03 17:54N 34°47' E 138°42'0 0.3
2020-Jul-03 16:30N 34°47' E 138°42'0 0.3
2020-Jul-03 15:54N 34°47' E 138°41'0 0.6
2020-Jul-03 15:25N 34°47' E 138°41'0 0.4
2020-Jul-03 14:26N 34°47' E 138°42'0 0.7
2020-Jul-03 13:53N 34°47' E 138°41'0 0.8
2020-Jul-03 13:17N 34°47' E 138°42'0 0.1
2020-Jul-03 10:30N 34°47' E 138°42'0 0.2
2020-Jul-03 09:19N 34°48' E 138°42'0 0.4
2020-Jul-03 08:58N 34°48' E 138°42'0 0.3
2020-Jul-03 08:16N 34°48' E 138°42'0 0.1
2020-Jul-03 04:00N 34°47' E 138°42'0 0.3
2020-Jul-03 02:59N 34°47' E 138°41'4 7.7
2020-Jul-03 02:28N 34°47' E 138°37'2 0.3
2020-Jul-02 20:29N 34°47' E 138°35'0 0.1
2020-Jul-02 19:31N 34°46' E 138°35'1 0.6
2020-Jul-02 18:30N 34°47' E 138°34'13 5.1
2020-Jul-02 15:59N 34°36' E 138°42'42 7.3
2020-Jul-02 10:19N 34°57' E 139°26'1010.9
2020-Jul-02 09:25N 35°02' E 139°36'710.9
2020-Jul-02 08:45N 35°06' E 139°44'13 1.4
2020-Jul-01 23:31N 35°19' E 139°40'1 0.2
2020-Jul-01 18:31N 35°20' E 139°41'0 0.0
2020-Jul-01 16:01N 35°20' E 139°41'0 0.0
2020-Jul-01 13:31N 35°20' E 139°41'0 0.0
2020-Jul-01 05:30N 35°20' E 139°41'0 0.0
2020-Jul-01 04:01N 35°20' E 139°41'0 0.0
2020-Jul-01 02:30N 35°20' E 139°41'2 0.7
2020-Jul-01 00:00N 35°19' E 139°39'58 3.5
2020-Jun-30 07:30N 35°02' E 138°31'1 0.9
2020-Jun-30 06:21N 35°02' E 138°31'0 0.0
2020-Jun-30 02:15N 35°02' E 138°31'0 0.0
2020-Jun-30 00:27N 35°02' E 138°31'0 0.0
2020-Jun-29 22:51N 35°02' E 138°31'0 0.0
2020-Jun-29 22:15N 35°02' E 138°31'0 0.0
2020-Jun-29 21:24N 35°02' E 138°31'0 0.0
2020-Jun-29 16:09N 35°02' E 138°31'0 0.0
2020-Jun-29 15:36N 35°02' E 138°31'0 0.0
2020-Jun-29 13:51N 35°02' E 138°31'0 0.0
2020-Jun-29 13:28N 35°02' E 138°31'0 0.0
2020-Jun-29 06:31N 35°02' E 138°31'0 0.0
2020-Jun-29 05:28N 35°02' E 138°31'0 0.0
2020-Jun-29 04:28N 35°02' E 138°31'0 0.0
2020-Jun-29 00:28N 35°02' E 138°31'0 0.0
2020-Jun-28 23:28N 35°02' E 138°31'0 0.0
2020-Jun-28 22:28N 35°02' E 138°31'0 0.0
2020-Jun-28 21:58N 35°02' E 138°31'0 0.0
2020-Jun-28 21:28N 35°02' E 138°31'0 0.0
2020-Jun-28 18:30N 35°02' E 138°31'0 0.0
2020-Jun-28 14:30N 35°02' E 138°31'0 0.0
2020-Jun-28 13:27N 35°02' E 138°31'0 0.0
2020-Jun-28 12:00N 35°02' E 138°31'0 0.0
2020-Jun-28 07:27N 35°02' E 138°31'0 0.0
2020-Jun-28 05:00N 35°02' E 138°31'0 0.0
2020-Jun-28 02:27N 35°02' E 138°31'0 0.0
2020-Jun-28 01:21N 35°02' E 138°31'0 0.0
2020-Jun-27 22:57N 35°02' E 138°31'0 0.0
2020-Jun-27 22:27N 35°02' E 138°31'0 0.0
2020-Jun-27 19:27N 35°02' E 138°31'0 0.0
2020-Jun-27 18:45N 35°02' E 138°31'0 0.0
2020-Jun-27 16:21N 35°02' E 138°31'  

Dump ship's entire track history